sensor_id;sensor_type;location;lat;lon;timestamp;temperature;humidity
18658;DHT22;9458;50.942;5.074;2023-07-31T00:00:29;17.40;99.90
18658;DHT22;9458;50.942;5.074;2023-07-31T00:03:07;17.40;99.90
18658;DHT22;9458;50.942;5.074;2023-07-31T00:05:39;17.40;99.90
18658;DHT22;9458;50.942;5.074;2023-07-31T00:08:07;17.40;99.90
18658;DHT22;9458;50.942;5.074;2023-07-31T00:10:44;17.40;99.90
18658;DHT22;9458;50.942;5.074;2023-07-31T00:13:11;17.40;99.90
18658;DHT22;9458;50.942;5.074;2023-07-31T00:15:38;17.40;99.90
18658;DHT22;9458;50.942;5.074;2023-07-31T00:18:08;17.30;99.90
18658;DHT22;9458;50.942;5.074;2023-07-31T00:20:36;17.40;99.90
18658;DHT22;9458;50.942;5.074;2023-07-31T00:23:03;17.40;99.90
18658;DHT22;9458;50.942;5.074;2023-07-31T00:25:31;17.30;99.90
18658;DHT22;9458;50.942;5.074;2023-07-31T00:27:58;17.30;99.90
18658;DHT22;9458;50.942;5.074;2023-07-31T00:30:25;17.30;99.90
18658;DHT22;9458;50.942;5.074;2023-07-31T00:32:52;17.20;99.90
18658;DHT22;9458;50.942;5.074;2023-07-31T00:35:22;17.30;99.90
18658;DHT22;9458;50.942;5.074;2023-07-31T00:37:50;17.40;99.90
18658;DHT22;9458;50.942;5.074;2023-07-31T00:40:17;17.40;99.90
18658;DHT22;9458;50.942;5.074;2023-07-31T00:42:45;17.40;99.90
18658;DHT22;9458;50.942;5.074;2023-07-31T00:45:13;17.40;99.90
18658;DHT22;9458;50.942;5.074;2023-07-31T00:47:44;17.40;99.90
18658;DHT22;9458;50.942;5.074;2023-07-31T00:50:12;17.40;99.90
18658;DHT22;9458;50.942;5.074;2023-07-31T00:52:42;17.50;99.90
18658;DHT22;9458;50.942;5.074;2023-07-31T00:55:09;17.50;99.90
18658;DHT22;9458;50.942;5.074;2023-07-31T00:57:36;17.50;99.90
18658;DHT22;9458;50.942;5.074;2023-07-31T01:00:06;17.50;99.90
18658;DHT22;9458;50.942;5.074;2023-07-31T01:02:36;17.50;99.90
18658;DHT22;9458;50.942;5.074;2023-07-31T01:05:03;17.50;99.90
18658;DHT22;9458;50.942;5.074;2023-07-31T01:07:31;17.50;99.90
18658;DHT22;9458;50.942;5.074;2023-07-31T01:10:02;17.60;99.90
18658;DHT22;9458;50.942;5.074;2023-07-31T01:12:30;17.60;99.90
18658;DHT22;9458;50.942;5.074;2023-07-31T01:15:04;17.60;99.90
18658;DHT22;9458;50.942;5.074;2023-07-31T01:17:31;17.50;99.90
18658;DHT22;9458;50.942;5.074;2023-07-31T01:19:59;17.50;99.90
18658;DHT22;9458;50.942;5.074;2023-07-31T01:22:30;17.50;99.90
18658;DHT22;9458;50.942;5.074;2023-07-31T01:25:06;17.60;99.90
18658;DHT22;9458;50.942;5.074;2023-07-31T01:27:38;17.50;99.90
18658;DHT22;9458;50.942;5.074;2023-07-31T01:30:09;17.60;99.90
18658;DHT22;9458;50.942;5.074;2023-07-31T01:32:40;17.60;99.90
18658;DHT22;9458;50.942;5.074;2023-07-31T01:35:07;17.60;99.90
18658;DHT22;9458;50.942;5.074;2023-07-31T01:37:35;17.60;99.90
18658;DHT22;9458;50.942;5.074;2023-07-31T01:40:02;17.60;99.90
18658;DHT22;9458;50.942;5.074;2023-07-31T01:42:28;17.60;99.90
18658;DHT22;9458;50.942;5.074;2023-07-31T01:44:58;17.60;99.90
18658;DHT22;9458;50.942;5.074;2023-07-31T01:47:25;17.70;99.90
18658;DHT22;9458;50.942;5.074;2023-07-31T01:49:52;17.60;99.90
18658;DHT22;9458;50.942;5.074;2023-07-31T01:52:19;17.70;99.90
18658;DHT22;9458;50.942;5.074;2023-07-31T01:54:46;17.60;99.90
18658;DHT22;9458;50.942;5.074;2023-07-31T01:57:14;17.60;99.90
18658;DHT22;9458;50.942;5.074;2023-07-31T01:59:41;17.50;99.90
18658;DHT22;9458;50.942;5.074;2023-07-31T02:02:09;17.50;99.90
18658;DHT22;9458;50.942;5.074;2023-07-31T02:04:43;17.60;99.90
18658;DHT22;9458;50.942;5.074;2023-07-31T02:07:10;17.60;99.90
18658;DHT22;9458;50.942;5.074;2023-07-31T02:09:37;17.70;99.90
18658;DHT22;9458;50.942;5.074;2023-07-31T02:12:04;17.70;99.90
18658;DHT22;9458;50.942;5.074;2023-07-31T02:14:36;17.70;99.90
18658;DHT22;9458;50.942;5.074;2023-07-31T02:17:07;17.60;99.90
18658;DHT22;9458;50.942;5.074;2023-07-31T02:19:37;17.60;99.90
18658;DHT22;9458;50.942;5.074;2023-07-31T02:22:04;17.60;99.90
18658;DHT22;9458;50.942;5.074;2023-07-31T02:24:31;17.60;99.90
18658;DHT22;9458;50.942;5.074;2023-07-31T02:26:58;17.60;99.90
18658;DHT22;9458;50.942;5.074;2023-07-31T02:29:27;17.60;99.90
18658;DHT22;9458;50.942;5.074;2023-07-31T02:31:54;17.60;99.90
18658;DHT22;9458;50.942;5.074;2023-07-31T02:34:22;17.60;99.90
18658;DHT22;9458;50.942;5.074;2023-07-31T02:36:50;17.60;99.90
18658;DHT22;9458;50.942;5.074;2023-07-31T02:39:17;17.60;99.90
18658;DHT22;9458;50.942;5.074;2023-07-31T02:41:44;17.60;99.90
18658;DHT22;9458;50.942;5.074;2023-07-31T02:44:11;17.60;99.90
18658;DHT22;9458;50.942;5.074;2023-07-31T02:46:41;17.60;99.90
18658;DHT22;9458;50.942;5.074;2023-07-31T02:49:08;17.50;99.90
18658;DHT22;9458;50.942;5.074;2023-07-31T02:51:35;17.60;99.90
18658;DHT22;9458;50.942;5.074;2023-07-31T02:54:04;17.60;99.90
18658;DHT22;9458;50.942;5.074;2023-07-31T02:56:31;17.60;99.90
18658;DHT22;9458;50.942;5.074;2023-07-31T02:59:00;17.70;99.90
18658;DHT22;9458;50.942;5.074;2023-07-31T03:01:27;17.70;99.90
18658;DHT22;9458;50.942;5.074;2023-07-31T03:03:54;17.70;99.90
18658;DHT22;9458;50.942;5.074;2023-07-31T03:06:25;17.70;99.90
18658;DHT22;9458;50.942;5.074;2023-07-31T03:08:56;17.70;99.90
18658;DHT22;9458;50.942;5.074;2023-07-31T03:11:27;17.70;99.90
18658;DHT22;9458;50.942;5.074;2023-07-31T03:13:57;17.70;99.90
18658;DHT22;9458;50.942;5.074;2023-07-31T03:16:25;17.70;99.90
18658;DHT22;9458;50.942;5.074;2023-07-31T03:19:03;17.80;99.90
18658;DHT22;9458;50.942;5.074;2023-07-31T03:21:31;17.80;99.90
18658;DHT22;9458;50.942;5.074;2023-07-31T03:23:59;17.70;99.90
18658;DHT22;9458;50.942;5.074;2023-07-31T03:26:30;17.70;99.90
18658;DHT22;9458;50.942;5.074;2023-07-31T03:29:00;17.70;99.90
18658;DHT22;9458;50.942;5.074;2023-07-31T03:31:27;17.70;99.90
18658;DHT22;9458;50.942;5.074;2023-07-31T03:33:54;17.70;99.90
18658;DHT22;9458;50.942;5.074;2023-07-31T03:36:21;17.70;99.90
18658;DHT22;9458;50.942;5.074;2023-07-31T03:38:50;17.70;99.90
18658;DHT22;9458;50.942;5.074;2023-07-31T03:41:18;17.80;99.90
18658;DHT22;9458;50.942;5.074;2023-07-31T03:43:50;17.80;99.90
18658;DHT22;9458;50.942;5.074;2023-07-31T03:46:18;17.70;99.90
18658;DHT22;9458;50.942;5.074;2023-07-31T03:48:45;17.70;99.90
18658;DHT22;9458;50.942;5.074;2023-07-31T03:51:12;17.70;99.90
18658;DHT22;9458;50.942;5.074;2023-07-31T03:53:39;17.70;99.90
18658;DHT22;9458;50.942;5.074;2023-07-31T03:56:06;17.70;99.90
18658;DHT22;9458;50.942;5.074;2023-07-31T03:58:33;17.70;99.90
18658;DHT22;9458;50.942;5.074;2023-07-31T04:01:03;17.70;99.90
18658;DHT22;9458;50.942;5.074;2023-07-31T04:03:31;17.70;99.90
18658;DHT22;9458;50.942;5.074;2023-07-31T04:05:58;17.70;99.90
18658;DHT22;9458;50.942;5.074;2023-07-31T04:08:25;17.70;99.90
18658;DHT22;9458;50.942;5.074;2023-07-31T04:10:52;17.70;99.90
18658;DHT22;9458;50.942;5.074;2023-07-31T04:13:19;17.70;99.90
18658;DHT22;9458;50.942;5.074;2023-07-31T04:15:47;17.70;99.90
18658;DHT22;9458;50.942;5.074;2023-07-31T04:18:16;17.70;99.90
18658;DHT22;9458;50.942;5.074;2023-07-31T04:20:43;17.80;99.90
18658;DHT22;9458;50.942;5.074;2023-07-31T04:23:11;17.70;99.90
18658;DHT22;9458;50.942;5.074;2023-07-31T04:25:38;17.70;99.90
18658;DHT22;9458;50.942;5.074;2023-07-31T04:28:05;17.70;99.90
18658;DHT22;9458;50.942;5.074;2023-07-31T04:30:33;17.70;99.90
18658;DHT22;9458;50.942;5.074;2023-07-31T04:32:59;17.80;99.90
18658;DHT22;9458;50.942;5.074;2023-07-31T04:35:28;17.70;99.90
18658;DHT22;9458;50.942;5.074;2023-07-31T04:37:55;17.70;99.90
18658;DHT22;9458;50.942;5.074;2023-07-31T04:40:22;17.70;99.90
18658;DHT22;9458;50.942;5.074;2023-07-31T04:42:49;17.70;99.90
18658;DHT22;9458;50.942;5.074;2023-07-31T04:45:16;17.70;99.90
18658;DHT22;9458;50.942;5.074;2023-07-31T04:47:43;17.70;99.90
18658;DHT22;9458;50.942;5.074;2023-07-31T04:50:10;17.60;99.90
18658;DHT22;9458;50.942;5.074;2023-07-31T04:52:38;17.60;99.90
18658;DHT22;9458;50.942;5.074;2023-07-31T04:55:05;17.60;99.90
18658;DHT22;9458;50.942;5.074;2023-07-31T04:57:33;17.60;99.90
18658;DHT22;9458;50.942;5.074;2023-07-31T04:59:59;17.60;99.90
18658;DHT22;9458;50.942;5.074;2023-07-31T05:02:27;17.50;99.90
18658;DHT22;9458;50.942;5.074;2023-07-31T05:04:54;17.60;99.90
18658;DHT22;9458;50.942;5.074;2023-07-31T05:07:22;17.60;99.90
18658;DHT22;9458;50.942;5.074;2023-07-31T05:09:50;17.60;99.90
18658;DHT22;9458;50.942;5.074;2023-07-31T05:12:17;17.60;99.90
18658;DHT22;9458;50.942;5.074;2023-07-31T05:14:44;17.60;99.90
18658;DHT22;9458;50.942;5.074;2023-07-31T05:17:12;17.60;99.90
18658;DHT22;9458;50.942;5.074;2023-07-31T05:19:38;17.60;99.90
18658;DHT22;9458;50.942;5.074;2023-07-31T05:22:05;17.60;99.90
18658;DHT22;9458;50.942;5.074;2023-07-31T05:24:33;17.70;99.90
18658;DHT22;9458;50.942;5.074;2023-07-31T05:27:01;17.70;99.90
18658;DHT22;9458;50.942;5.074;2023-07-31T05:29:29;17.70;99.90
18658;DHT22;9458;50.942;5.074;2023-07-31T05:31:56;17.60;99.90
18658;DHT22;9458;50.942;5.074;2023-07-31T05:34:23;17.60;99.90
18658;DHT22;9458;50.942;5.074;2023-07-31T05:36:50;17.70;99.90
18658;DHT22;9458;50.942;5.074;2023-07-31T05:39:17;17.70;99.90
18658;DHT22;9458;50.942;5.074;2023-07-31T05:41:45;17.60;99.90
18658;DHT22;9458;50.942;5.074;2023-07-31T05:44:14;17.70;99.90
18658;DHT22;9458;50.942;5.074;2023-07-31T05:46:41;17.70;99.90
18658;DHT22;9458;50.942;5.074;2023-07-31T05:49:08;17.60;99.90
18658;DHT22;9458;50.942;5.074;2023-07-31T05:51:35;17.60;99.90
18658;DHT22;9458;50.942;5.074;2023-07-31T05:54:02;17.60;99.90
18658;DHT22;9458;50.942;5.074;2023-07-31T05:56:29;17.60;99.90
18658;DHT22;9458;50.942;5.074;2023-07-31T05:58:57;17.50;99.90
18658;DHT22;9458;50.942;5.074;2023-07-31T06:01:25;17.50;99.90
18658;DHT22;9458;50.942;5.074;2023-07-31T06:04:00;17.50;99.90
18658;DHT22;9458;50.942;5.074;2023-07-31T06:06:31;17.50;99.90
18658;DHT22;9458;50.942;5.074;2023-07-31T06:08:58;17.40;99.90
18658;DHT22;9458;50.942;5.074;2023-07-31T06:11:25;17.40;99.90
18658;DHT22;9458;50.942;5.074;2023-07-31T06:13:53;17.40;99.90
18658;DHT22;9458;50.942;5.074;2023-07-31T06:16:21;17.40;99.90
18658;DHT22;9458;50.942;5.074;2023-07-31T06:18:49;17.40;99.90
18658;DHT22;9458;50.942;5.074;2023-07-31T06:21:17;17.30;99.90
18658;DHT22;9458;50.942;5.074;2023-07-31T06:23:44;17.30;99.90
18658;DHT22;9458;50.942;5.074;2023-07-31T06:26:11;17.20;99.90
18658;DHT22;9458;50.942;5.074;2023-07-31T06:28:39;17.20;99.90
18658;DHT22;9458;50.942;5.074;2023-07-31T06:31:06;17.20;99.90
18658;DHT22;9458;50.942;5.074;2023-07-31T06:33:33;17.30;99.90
18658;DHT22;9458;50.942;5.074;2023-07-31T06:36:03;17.30;99.90
18658;DHT22;9458;50.942;5.074;2023-07-31T06:38:30;17.40;99.90
18658;DHT22;9458;50.942;5.074;2023-07-31T06:40:57;17.30;99.90
18658;DHT22;9458;50.942;5.074;2023-07-31T06:43:25;17.40;99.90
18658;DHT22;9458;50.942;5.074;2023-07-31T06:45:52;17.30;99.90
18658;DHT22;9458;50.942;5.074;2023-07-31T06:48:19;17.40;99.90
18658;DHT22;9458;50.942;5.074;2023-07-31T06:50:46;17.40;99.90
18658;DHT22;9458;50.942;5.074;2023-07-31T06:53:15;17.40;99.90
18658;DHT22;9458;50.942;5.074;2023-07-31T06:55:42;17.40;99.90
18658;DHT22;9458;50.942;5.074;2023-07-31T06:58:09;17.50;99.90
18658;DHT22;9458;50.942;5.074;2023-07-31T07:00:37;17.50;99.90
18658;DHT22;9458;50.942;5.074;2023-07-31T07:03:05;17.60;99.90
18658;DHT22;9458;50.942;5.074;2023-07-31T07:05:32;17.70;99.90
18658;DHT22;9458;50.942;5.074;2023-07-31T07:07:58;17.60;99.90
18658;DHT22;9458;50.942;5.074;2023-07-31T07:10:28;17.70;99.90
18658;DHT22;9458;50.942;5.074;2023-07-31T07:12:55;17.70;99.90
18658;DHT22;9458;50.942;5.074;2023-07-31T07:15:22;17.80;99.90
18658;DHT22;9458;50.942;5.074;2023-07-31T07:17:49;17.80;99.90
18658;DHT22;9458;50.942;5.074;2023-07-31T07:20:16;17.90;99.90
18658;DHT22;9458;50.942;5.074;2023-07-31T07:22:44;17.90;99.90
18658;DHT22;9458;50.942;5.074;2023-07-31T07:25:11;17.90;99.90
18658;DHT22;9458;50.942;5.074;2023-07-31T07:27:41;17.90;99.90
18658;DHT22;9458;50.942;5.074;2023-07-31T07:30:08;17.90;99.90
18658;DHT22;9458;50.942;5.074;2023-07-31T07:32:35;17.90;99.90
18658;DHT22;9458;50.942;5.074;2023-07-31T07:35:03;17.80;99.90
18658;DHT22;9458;50.942;5.074;2023-07-31T07:37:30;17.80;99.90
18658;DHT22;9458;50.942;5.074;2023-07-31T07:39:57;17.90;99.90
18658;DHT22;9458;50.942;5.074;2023-07-31T07:42:24;17.90;99.90
18658;DHT22;9458;50.942;5.074;2023-07-31T07:44:52;17.80;99.90
18658;DHT22;9458;50.942;5.074;2023-07-31T07:47:19;17.90;99.90
18658;DHT22;9458;50.942;5.074;2023-07-31T07:49:46;17.90;99.90
18658;DHT22;9458;50.942;5.074;2023-07-31T07:52:13;17.90;99.90
18658;DHT22;9458;50.942;5.074;2023-07-31T07:54:41;18.00;99.90
18658;DHT22;9458;50.942;5.074;2023-07-31T07:57:08;18.00;99.90
18658;DHT22;9458;50.942;5.074;2023-07-31T07:59:35;18.00;99.90
18658;DHT22;9458;50.942;5.074;2023-07-31T08:02:04;18.00;99.90
18658;DHT22;9458;50.942;5.074;2023-07-31T08:04:31;18.00;99.90
18658;DHT22;9458;50.942;5.074;2023-07-31T08:06:58;18.00;99.90
18658;DHT22;9458;50.942;5.074;2023-07-31T08:09:25;18.00;99.90
18658;DHT22;9458;50.942;5.074;2023-07-31T08:11:52;18.10;99.90
18658;DHT22;9458;50.942;5.074;2023-07-31T08:14:20;18.10;99.90
18658;DHT22;9458;50.942;5.074;2023-07-31T08:16:48;18.30;99.90
18658;DHT22;9458;50.942;5.074;2023-07-31T08:19:17;18.20;99.90
18658;DHT22;9458;50.942;5.074;2023-07-31T08:21:43;18.20;99.90
18658;DHT22;9458;50.942;5.074;2023-07-31T08:24:11;18.20;99.90
18658;DHT22;9458;50.942;5.074;2023-07-31T08:26:38;18.10;99.90
18658;DHT22;9458;50.942;5.074;2023-07-31T08:29:06;18.00;99.90
18658;DHT22;9458;50.942;5.074;2023-07-31T08:31:33;18.10;99.90
18658;DHT22;9458;50.942;5.074;2023-07-31T08:34:01;18.20;99.90
18658;DHT22;9458;50.942;5.074;2023-07-31T08:36:30;18.30;99.90
18658;DHT22;9458;50.942;5.074;2023-07-31T08:38:57;18.30;99.90
18658;DHT22;9458;50.942;5.074;2023-07-31T08:41:24;18.40;99.90
18658;DHT22;9458;50.942;5.074;2023-07-31T08:43:51;18.40;99.90
18658;DHT22;9458;50.942;5.074;2023-07-31T08:46:18;18.40;99.90
18658;DHT22;9458;50.942;5.074;2023-07-31T08:48:47;18.40;99.90
18658;DHT22;9458;50.942;5.074;2023-07-31T08:51:14;18.30;99.90
18658;DHT22;9458;50.942;5.074;2023-07-31T08:53:43;18.40;99.90
18658;DHT22;9458;50.942;5.074;2023-07-31T08:56:11;18.50;99.90
18658;DHT22;9458;50.942;5.074;2023-07-31T08:58:38;18.60;99.90
18658;DHT22;9458;50.942;5.074;2023-07-31T09:01:05;18.40;99.90
18658;DHT22;9458;50.942;5.074;2023-07-31T09:03:34;18.40;99.90
18658;DHT22;9458;50.942;5.074;2023-07-31T09:06:02;18.40;99.90
18658;DHT22;9458;50.942;5.074;2023-07-31T09:08:31;18.50;99.90
18658;DHT22;9458;50.942;5.074;2023-07-31T09:11:01;18.60;99.90
18658;DHT22;9458;50.942;5.074;2023-07-31T09:13:29;18.40;99.90
18658;DHT22;9458;50.942;5.074;2023-07-31T09:15:56;18.40;99.90
18658;DHT22;9458;50.942;5.074;2023-07-31T09:18:23;18.40;99.90
18658;DHT22;9458;50.942;5.074;2023-07-31T09:21:00;18.40;99.90
18658;DHT22;9458;50.942;5.074;2023-07-31T09:23:27;18.30;99.90
18658;DHT22;9458;50.942;5.074;2023-07-31T09:26:08;18.40;99.90
18658;DHT22;9458;50.942;5.074;2023-07-31T09:28:36;18.50;99.90
18658;DHT22;9458;50.942;5.074;2023-07-31T09:31:03;18.40;99.90
18658;DHT22;9458;50.942;5.074;2023-07-31T09:33:30;18.40;99.90
18658;DHT22;9458;50.942;5.074;2023-07-31T09:35:58;18.50;99.90
18658;DHT22;9458;50.942;5.074;2023-07-31T09:38:25;18.70;99.90
18658;DHT22;9458;50.942;5.074;2023-07-31T09:40:52;18.70;99.90
18658;DHT22;9458;50.942;5.074;2023-07-31T09:43:22;18.70;99.90
18658;DHT22;9458;50.942;5.074;2023-07-31T09:45:54;18.60;99.90
18658;DHT22;9458;50.942;5.074;2023-07-31T09:48:22;18.70;99.90
18658;DHT22;9458;50.942;5.074;2023-07-31T09:50:52;18.60;99.90
18658;DHT22;9458;50.942;5.074;2023-07-31T09:53:19;18.60;99.90
18658;DHT22;9458;50.942;5.074;2023-07-31T09:55:54;18.60;99.90
18658;DHT22;9458;50.942;5.074;2023-07-31T09:58:23;18.70;99.90
18658;DHT22;9458;50.942;5.074;2023-07-31T10:00:52;18.80;99.90
18658;DHT22;9458;50.942;5.074;2023-07-31T10:03:22;18.80;99.90
18658;DHT22;9458;50.942;5.074;2023-07-31T10:06:00;18.70;99.90
18658;DHT22;9458;50.942;5.074;2023-07-31T10:08:37;18.70;99.90
18658;DHT22;9458;50.942;5.074;2023-07-31T10:11:07;18.70;99.90
18658;DHT22;9458;50.942;5.074;2023-07-31T10:13:43;18.90;99.90
18658;DHT22;9458;50.942;5.074;2023-07-31T10:16:11;19.00;99.90
18658;DHT22;9458;50.942;5.074;2023-07-31T10:18:39;19.30;99.90
18658;DHT22;9458;50.942;5.074;2023-07-31T10:21:06;19.70;99.90
18658;DHT22;9458;50.942;5.074;2023-07-31T10:23:34;19.70;99.90
18658;DHT22;9458;50.942;5.074;2023-07-31T10:26:02;19.60;99.90
18658;DHT22;9458;50.942;5.074;2023-07-31T10:28:32;19.50;99.90
18658;DHT22;9458;50.942;5.074;2023-07-31T10:31:01;19.80;99.90
18658;DHT22;9458;50.942;5.074;2023-07-31T10:33:28;20.00;99.90
18658;DHT22;9458;50.942;5.074;2023-07-31T10:38:37;20.20;99.90
18658;DHT22;9458;50.942;5.074;2023-07-31T10:41:07;20.20;99.90
18658;DHT22;9458;50.942;5.074;2023-07-31T10:43:35;20.00;99.90
18658;DHT22;9458;50.942;5.074;2023-07-31T10:46:08;20.00;99.90
18658;DHT22;9458;50.942;5.074;2023-07-31T10:48:35;20.10;99.90
18658;DHT22;9458;50.942;5.074;2023-07-31T10:51:06;20.20;99.90
18658;DHT22;9458;50.942;5.074;2023-07-31T10:53:33;20.30;99.90
18658;DHT22;9458;50.942;5.074;2023-07-31T10:56:01;20.30;99.90
18658;DHT22;9458;50.942;5.074;2023-07-31T10:58:29;20.20;99.90
18658;DHT22;9458;50.942;5.074;2023-07-31T11:00:57;20.20;99.90
18658;DHT22;9458;50.942;5.074;2023-07-31T11:03:26;20.30;99.90
18658;DHT22;9458;50.942;5.074;2023-07-31T11:05:59;20.40;99.90
18658;DHT22;9458;50.942;5.074;2023-07-31T11:08:28;20.50;99.90
18658;DHT22;9458;50.942;5.074;2023-07-31T11:11:06;20.60;99.90
18658;DHT22;9458;50.942;5.074;2023-07-31T11:13:39;20.40;99.90
18658;DHT22;9458;50.942;5.074;2023-07-31T11:16:06;20.30;99.90
18658;DHT22;9458;50.942;5.074;2023-07-31T11:18:37;20.40;99.90
18658;DHT22;9458;50.942;5.074;2023-07-31T11:21:05;20.50;99.90
18658;DHT22;9458;50.942;5.074;2023-07-31T11:23:32;20.60;99.90
18658;DHT22;9458;50.942;5.074;2023-07-31T11:26:00;20.60;99.90
18658;DHT22;9458;50.942;5.074;2023-07-31T11:28:30;20.70;99.90
18658;DHT22;9458;50.942;5.074;2023-07-31T11:30:57;20.70;99.90
18658;DHT22;9458;50.942;5.074;2023-07-31T11:33:24;20.80;99.90
18658;DHT22;9458;50.942;5.074;2023-07-31T11:35:53;20.70;99.90
18658;DHT22;9458;50.942;5.074;2023-07-31T11:38:24;20.90;99.90
18658;DHT22;9458;50.942;5.074;2023-07-31T11:40:51;20.90;99.90
18658;DHT22;9458;50.942;5.074;2023-07-31T11:43:19;21.20;99.90
18658;DHT22;9458;50.942;5.074;2023-07-31T11:45:46;21.30;99.90
18658;DHT22;9458;50.942;5.074;2023-07-31T11:48:18;21.50;99.90
18658;DHT22;9458;50.942;5.074;2023-07-31T11:50:45;21.60;99.90
18658;DHT22;9458;50.942;5.074;2023-07-31T11:53:14;21.30;99.90
18658;DHT22;9458;50.942;5.074;2023-07-31T11:55:41;21.30;99.90
18658;DHT22;9458;50.942;5.074;2023-07-31T11:58:08;21.40;99.90
18658;DHT22;9458;50.942;5.074;2023-07-31T12:00:35;21.60;99.90
18658;DHT22;9458;50.942;5.074;2023-07-31T12:03:02;21.50;99.90
18658;DHT22;9458;50.942;5.074;2023-07-31T12:05:29;21.40;99.90
18658;DHT22;9458;50.942;5.074;2023-07-31T12:07:56;21.40;99.90
18658;DHT22;9458;50.942;5.074;2023-07-31T12:10:36;21.40;99.90
18658;DHT22;9458;50.942;5.074;2023-07-31T12:13:03;21.10;99.90
18658;DHT22;9458;50.942;5.074;2023-07-31T12:15:34;20.90;99.90
18658;DHT22;9458;50.942;5.074;2023-07-31T12:18:05;21.00;99.90
18658;DHT22;9458;50.942;5.074;2023-07-31T12:20:33;21.00;99.90
18658;DHT22;9458;50.942;5.074;2023-07-31T12:23:01;21.00;99.90
18658;DHT22;9458;50.942;5.074;2023-07-31T12:25:30;21.10;99.90
18658;DHT22;9458;50.942;5.074;2023-07-31T12:28:03;21.20;99.90
18658;DHT22;9458;50.942;5.074;2023-07-31T12:30:32;21.40;99.90
18658;DHT22;9458;50.942;5.074;2023-07-31T12:33:02;21.90;99.90
18658;DHT22;9458;50.942;5.074;2023-07-31T12:35:34;22.10;99.90
18658;DHT22;9458;50.942;5.074;2023-07-31T12:38:01;21.80;99.90
18658;DHT22;9458;50.942;5.074;2023-07-31T12:40:30;21.60;99.90
18658;DHT22;9458;50.942;5.074;2023-07-31T12:42:57;21.50;99.90
18658;DHT22;9458;50.942;5.074;2023-07-31T12:45:26;21.70;99.90
18658;DHT22;9458;50.942;5.074;2023-07-31T12:47:53;21.70;99.90
18658;DHT22;9458;50.942;5.074;2023-07-31T12:50:20;21.70;99.90
18658;DHT22;9458;50.942;5.074;2023-07-31T12:52:47;21.50;99.90
18658;DHT22;9458;50.942;5.074;2023-07-31T12:55:14;21.50;99.90
18658;DHT22;9458;50.942;5.074;2023-07-31T12:57:44;21.40;99.90
18658;DHT22;9458;50.942;5.074;2023-07-31T13:00:12;21.30;99.90
18658;DHT22;9458;50.942;5.074;2023-07-31T13:02:40;21.20;99.90
18658;DHT22;9458;50.942;5.074;2023-07-31T13:05:08;21.30;99.90
18658;DHT22;9458;50.942;5.074;2023-07-31T13:07:36;21.30;99.90
18658;DHT22;9458;50.942;5.074;2023-07-31T13:10:05;21.30;99.90
18658;DHT22;9458;50.942;5.074;2023-07-31T13:12:33;21.20;99.90
18658;DHT22;9458;50.942;5.074;2023-07-31T13:15:02;21.20;99.90
18658;DHT22;9458;50.942;5.074;2023-07-31T13:17:29;21.20;99.90
18658;DHT22;9458;50.942;5.074;2023-07-31T13:19:56;21.20;99.90
18658;DHT22;9458;50.942;5.074;2023-07-31T13:22:23;21.30;99.90
18658;DHT22;9458;50.942;5.074;2023-07-31T13:24:50;21.30;99.90
18658;DHT22;9458;50.942;5.074;2023-07-31T13:27:18;21.10;99.90
18658;DHT22;9458;50.942;5.074;2023-07-31T13:29:47;21.00;99.90
18658;DHT22;9458;50.942;5.074;2023-07-31T13:32:16;20.90;99.90
18658;DHT22;9458;50.942;5.074;2023-07-31T13:34:43;20.90;99.90
18658;DHT22;9458;50.942;5.074;2023-07-31T13:37:10;21.00;99.90
18658;DHT22;9458;50.942;5.074;2023-07-31T13:39:37;21.00;99.90
18658;DHT22;9458;50.942;5.074;2023-07-31T13:42:05;20.90;99.90
18658;DHT22;9458;50.942;5.074;2023-07-31T13:44:33;21.00;99.90
18658;DHT22;9458;50.942;5.074;2023-07-31T13:47:00;20.90;99.90
18658;DHT22;9458;50.942;5.074;2023-07-31T13:49:30;20.80;99.90
18658;DHT22;9458;50.942;5.074;2023-07-31T13:51:57;20.70;99.90
18658;DHT22;9458;50.942;5.074;2023-07-31T13:54:24;20.80;99.90
18658;DHT22;9458;50.942;5.074;2023-07-31T13:56:51;20.80;99.90
18658;DHT22;9458;50.942;5.074;2023-07-31T13:59:20;20.70;99.90
18658;DHT22;9458;50.942;5.074;2023-07-31T14:01:48;20.70;99.90
18658;DHT22;9458;50.942;5.074;2023-07-31T14:04:20;20.60;99.90
18658;DHT22;9458;50.942;5.074;2023-07-31T14:06:49;20.50;99.90
18658;DHT22;9458;50.942;5.074;2023-07-31T14:09:16;20.30;99.90
18658;DHT22;9458;50.942;5.074;2023-07-31T14:11:44;20.10;99.90
18658;DHT22;9458;50.942;5.074;2023-07-31T14:14:12;20.00;99.90
18658;DHT22;9458;50.942;5.074;2023-07-31T14:16:39;19.90;99.90
18658;DHT22;9458;50.942;5.074;2023-07-31T14:19:07;19.90;99.90
18658;DHT22;9458;50.942;5.074;2023-07-31T14:21:36;19.90;99.90
18658;DHT22;9458;50.942;5.074;2023-07-31T14:24:05;19.90;99.90
18658;DHT22;9458;50.942;5.074;2023-07-31T14:26:32;19.70;99.90
18658;DHT22;9458;50.942;5.074;2023-07-31T14:29:00;19.70;99.90
18658;DHT22;9458;50.942;5.074;2023-07-31T14:31:27;19.80;99.90
18658;DHT22;9458;50.942;5.074;2023-07-31T14:33:54;19.70;99.90
18658;DHT22;9458;50.942;5.074;2023-07-31T14:36:23;19.70;99.90
18658;DHT22;9458;50.942;5.074;2023-07-31T14:38:50;19.90;99.90
18658;DHT22;9458;50.942;5.074;2023-07-31T14:41:19;19.80;99.90
18658;DHT22;9458;50.942;5.074;2023-07-31T14:43:46;19.70;99.90
18658;DHT22;9458;50.942;5.074;2023-07-31T14:46:14;19.60;99.90
18658;DHT22;9458;50.942;5.074;2023-07-31T14:48:43;19.50;99.90
18658;DHT22;9458;50.942;5.074;2023-07-31T14:51:11;19.50;99.90
18658;DHT22;9458;50.942;5.074;2023-07-31T14:53:40;19.50;99.90
18658;DHT22;9458;50.942;5.074;2023-07-31T14:56:07;19.60;99.90
18658;DHT22;9458;50.942;5.074;2023-07-31T14:58:36;19.60;99.90
18658;DHT22;9458;50.942;5.074;2023-07-31T15:01:03;19.60;99.90
18658;DHT22;9458;50.942;5.074;2023-07-31T15:03:30;19.40;99.90
18658;DHT22;9458;50.942;5.074;2023-07-31T15:05:58;19.40;99.90
18658;DHT22;9458;50.942;5.074;2023-07-31T15:08:25;19.40;99.90
18658;DHT22;9458;50.942;5.074;2023-07-31T15:10:54;19.50;99.90
18658;DHT22;9458;50.942;5.074;2023-07-31T15:13:23;19.60;99.90
18658;DHT22;9458;50.942;5.074;2023-07-31T15:15:52;19.70;99.90
18658;DHT22;9458;50.942;5.074;2023-07-31T15:18:21;19.70;99.90
18658;DHT22;9458;50.942;5.074;2023-07-31T15:20:49;19.80;99.90
18658;DHT22;9458;50.942;5.074;2023-07-31T15:23:17;19.80;99.90
18658;DHT22;9458;50.942;5.074;2023-07-31T15:25:44;19.80;99.90
18658;DHT22;9458;50.942;5.074;2023-07-31T15:28:12;19.70;99.90
18658;DHT22;9458;50.942;5.074;2023-07-31T15:30:40;19.60;99.90
18658;DHT22;9458;50.942;5.074;2023-07-31T15:33:09;19.60;99.90
18658;DHT22;9458;50.942;5.074;2023-07-31T15:35:36;19.40;99.90
18658;DHT22;9458;50.942;5.074;2023-07-31T15:38:04;19.30;99.90
18658;DHT22;9458;50.942;5.074;2023-07-31T15:40:32;19.40;99.90
18658;DHT22;9458;50.942;5.074;2023-07-31T15:43:00;19.30;99.90
18658;DHT22;9458;50.942;5.074;2023-07-31T15:45:28;19.40;99.90
18658;DHT22;9458;50.942;5.074;2023-07-31T15:47:55;19.30;99.90
18658;DHT22;9458;50.942;5.074;2023-07-31T15:50:24;19.30;99.90
18658;DHT22;9458;50.942;5.074;2023-07-31T15:52:51;19.40;99.90